Arnot, PA

2:20 AM EDT on May 30, 2015 (GMT -0400)
Armenia Mountain | | Change Station
CLOSE
Current Station
Personal Weather Station
Location: Mainesburg, PA
Elevation: 2406 ft
Nearby Weather Stations

Elev 2406 ft 41.76 °N, 76.92 °W | Updated 41 seconds ago

Partly Cloudy
Partly Cloudy
63.2 °F
Feels Like 63.2 °F
N
7.6
Wind Variable Wind from North
Gusts 7.6 mph

Today
High -- | Low -- °F
--% Chance of Precip.
Yesterday
High -- | Low -- °F
Precip. -- in
5:37 AM 8:34 PM
Waxing Gibbous, 88% visible
Pressure 30.12 in
Visibility 10.0 miles
Clouds Clear
Dew Point 62 °F
Humidity 94%
Rainfall 0.00 in
Snow Depth Not available.
UV 0 out of 12
Pollen 9.20 out of 12
Air Quality Not available.
Flu Activity Sporadic
METAR KIPT 300554Z AUTO 16009KT 10SM CLR 23/18 A3013 RMK AO2 SLP198 T02330183 10272 20233 56006

More Conditions Fewer Conditions

Pressure 30.12 in
Visibility 10.0 miles
Clouds Clear
Dew Point 62 °F
Humidity 94%
Rainfall 0.00 in
Snow Depth Not available.
UV 0 out of 12
Pollen 9.20 out of 12
Air Quality Not available.
Flu Activity Sporadic
METAR KIPT 300554Z AUTO 16009KT 10SM CLR 23/18 A3013 RMK AO2 SLP198 T02330183 10272 20233 56006

More Conditions Fewer Conditions

10-Day Weather Forecast

Almanac

Astronomy

May. 30, 2015 Rise Set
Actual Time
Civil Twilight
Nautical Twilight
Astronomical Twilight
Moon
Length of Visible Light
Length of Day
Tomorrow will be .
, % of the Moon is Illuminated

Today's Extremes

State Highs State Lows

Community

WunderPhotos

Upload Photos

1,825,472 photos uploaded!

WunderBlogs® & News

Nearby

Air Quality

  Air Quality AQ Index Pollutant
Not available.

Snow Depth

Station Depth Elevation

Earthquake Activity

City Distance Mag. Time & Date
Minimum magnitude displayed is 2.5.

Coastal Water Temperatures

Place Temperature

Stations

Nearby Weather Stations

Station Location Temp. Windchill Dew Point Humidity Wind Precip. Elev Updated Type